createdAt,value
2023-04-24T00:02:07.931Z,99595.16
2023-04-24T00:04:34.915Z,99599.13
2023-04-24T00:07:01.631Z,99596.72
2023-04-24T00:09:28.288Z,99594.13
2023-04-24T00:11:55.017Z,99587.16
2023-04-24T00:14:21.784Z,99582.59
2023-04-24T00:16:48.471Z,99584.97
2023-04-24T00:19:15.171Z,99581.25
2023-04-24T00:21:42.589Z,99579.16
2023-04-24T00:24:12.137Z,99585.94
2023-04-24T00:26:38.831Z,99576.56
2023-04-24T00:29:08.591Z,99579.16
2023-04-24T00:31:38.265Z,99574.53
2023-04-24T00:34:05.812Z,99571.59
2023-04-24T00:36:33.046Z,99571.59
2023-04-24T00:38:59.679Z,99571.31
2023-04-24T00:41:26.686Z,99572.78
2023-04-24T00:43:53.660Z,99562.63
2023-04-24T00:46:20.725Z,99569.59
2023-04-24T00:48:47.530Z,99566.59
2023-04-24T00:51:14.502Z,99570.19
2023-04-24T00:53:41.253Z,99576.91
2023-04-24T00:56:07.941Z,99570.19
2023-04-24T00:58:34.674Z,99579.84
2023-04-24T01:01:03.526Z,99574.88
2023-04-24T01:03:33.038Z,99573.13
2023-04-24T01:06:00.259Z,99567.16
2023-04-24T01:08:29.193Z,99568.41
2023-04-24T01:10:58.951Z,99566.38
2023-04-24T01:13:25.671Z,99569.69
2023-04-24T01:15:52.405Z,99569.34
2023-04-24T01:18:19.489Z,99582.94
2023-04-24T01:20:47.748Z,99579.59
2023-04-24T01:23:14.951Z,99577.84
2023-04-24T01:25:42.028Z,99578.50
2023-04-24T01:28:09.211Z,99566.38
2023-04-24T01:30:35.902Z,99576.72
2023-04-24T01:33:03.622Z,99571.13
2023-04-24T01:35:30.532Z,99568.53
2023-04-24T01:37:57.261Z,99561.16
2023-04-24T01:40:25.157Z,99563.19
2023-04-24T01:42:52.582Z,99559.94
2023-04-24T01:45:19.546Z,99571.34
2023-04-24T01:47:47.646Z,99571.03
2023-04-24T01:50:14.438Z,99562.19
2023-04-24T01:52:41.176Z,99568.84
2023-04-24T01:55:10.586Z,99566.97
2023-04-24T01:57:38.300Z,99564.22
2023-04-24T02:00:05.875Z,99562.63
2023-04-24T02:02:45.678Z,99555.63
2023-04-24T02:05:14.147Z,99558.31
2023-04-24T02:07:43.922Z,99558.81
2023-04-24T02:10:10.780Z,99553.75
2023-04-24T02:12:42.277Z,99551.66
2023-04-24T02:15:09.266Z,99546.50
2023-04-24T02:17:37.751Z,99547.50
2023-04-24T02:20:05.713Z,99545.81
2023-04-24T02:22:32.384Z,99554.88
2023-04-24T02:25:02.572Z,99548.94
2023-04-24T02:27:29.238Z,99551.34
2023-04-24T02:29:57.708Z,99551.34
2023-04-24T02:32:24.708Z,99547.91
2023-04-24T02:34:51.646Z,99553.69
2023-04-24T02:37:18.392Z,99566.22
2023-04-24T02:39:45.149Z,99584.91
2023-04-24T02:42:12.102Z,99596.38
2023-04-24T02:44:38.777Z,99604.44
2023-04-24T02:47:05.587Z,99606.31
2023-04-24T02:49:32.355Z,99613.97
2023-04-24T02:51:59.020Z,99606.75
2023-04-24T02:54:25.994Z,99605.72
2023-04-24T02:56:52.793Z,99608.38
2023-04-24T02:59:19.500Z,99610.16
2023-04-24T03:01:49.194Z,99612.94
2023-04-24T03:04:16.739Z,99614.16
2023-04-24T03:06:43.927Z,99615.53
2023-04-24T03:09:10.592Z,99624.63
2023-04-24T03:11:37.409Z,99623.59
2023-04-24T03:14:04.110Z,99619.69
2023-04-24T03:16:30.854Z,99610.53
2023-04-24T03:18:57.585Z,99606.19
2023-04-24T03:21:27.566Z,99610.16
2023-04-24T03:23:54.442Z,99610.41
2023-04-24T03:26:21.176Z,99606.06
2023-04-24T03:29:02.688Z,99602.78
2023-04-24T03:31:29.441Z,99609.25
2023-04-24T03:33:56.124Z,99616.81
2023-04-24T03:36:27.187Z,99617.59
2023-04-24T03:38:55.297Z,99624.06
2023-04-24T03:41:44.645Z,99634.66
2023-04-24T03:44:18.726Z,99638.78
2023-04-24T03:46:45.692Z,99647.13
2023-04-24T03:49:12.595Z,99639.34
2023-04-24T03:51:43.066Z,99647.69
2023-04-24T03:54:17.470Z,99652.59
2023-04-24T03:56:48.180Z,99650.34
2023-04-24T03:59:15.398Z,99650.75
2023-04-24T04:01:46.443Z,99645.47
2023-04-24T04:04:16.103Z,99654.16
2023-04-24T04:06:45.127Z,99660.66
2023-04-24T04:09:11.899Z,99672.06
2023-04-24T04:11:38.608Z,99673.25
2023-04-24T04:14:06.366Z,99669.53
2023-04-24T04:16:34.953Z,99679.53
2023-04-24T04:19:04.162Z,99682.47
2023-04-24T04:21:32.317Z,99682.00
2023-04-24T04:24:10.659Z,99683.13
2023-04-24T04:26:41.721Z,99687.69
2023-04-24T04:29:11.753Z,99696.00
2023-04-24T04:31:42.188Z,99696.56
2023-04-24T04:34:13.624Z,99701.94
2023-04-24T04:36:42.317Z,99705.66
2023-04-24T04:39:22.322Z,99709.44
2023-04-24T04:41:57.154Z,99712.09
2023-04-24T04:44:30.378Z,99706.19
2023-04-24T04:46:59.508Z,99713.38
2023-04-24T04:49:29.602Z,99718.47
2023-04-24T04:51:56.550Z,99718.97
2023-04-24T04:54:25.961Z,99713.34
2023-04-24T04:56:52.983Z,99722.44
2023-04-24T04:59:19.933Z,99728.56
2023-04-24T05:01:48.349Z,99733.91
2023-04-24T05:04:16.871Z,99731.72
2023-04-24T05:06:44.467Z,99734.34
2023-04-24T05:09:11.367Z,99734.81
2023-04-24T05:11:47.668Z,99744.09
2023-04-24T05:14:14.603Z,99750.72
2023-04-24T05:16:43.151Z,99751.47
2023-04-24T05:19:11.785Z,99750.06
2023-04-24T05:21:41.676Z,99763.63
2023-04-24T05:24:09.660Z,99766.19
2023-04-24T05:26:48.836Z,99751.94
2023-04-24T05:29:20.598Z,99756.28
2023-04-24T05:31:47.980Z,99772.72
2023-04-24T05:34:17.059Z,99769.78
2023-04-24T05:36:45.632Z,99765.84
2023-04-24T05:39:12.766Z,99772.03
2023-04-24T05:41:39.428Z,99774.13
2023-04-24T05:44:06.314Z,99778.09
2023-04-24T05:46:33.308Z,99786.28
2023-04-24T05:49:00.052Z,99779.09
2023-04-24T05:51:26.994Z,99775.84
2023-04-24T05:53:53.955Z,99784.97
2023-04-24T05:56:21.607Z,99786.97
2023-04-24T05:58:49.817Z,99801.78
2023-04-24T06:01:16.772Z,99789.28
2023-04-24T06:03:47.202Z,99790.34
2023-04-24T06:06:14.468Z,99795.03
2023-04-24T06:08:43.548Z,99792.16
2023-04-24T06:11:10.867Z,99798.56
2023-04-24T06:13:38.734Z,99799.22
2023-04-24T06:16:34.843Z,99797.69
2023-04-24T06:19:08.849Z,99804.09
2023-04-24T06:21:36.128Z,99804.06
2023-04-24T06:24:03.311Z,99810.63
2023-04-24T06:26:30.295Z,99801.34
2023-04-24T06:28:57.313Z,99807.16
2023-04-24T06:31:24.046Z,99822.28
2023-04-24T06:33:50.951Z,99826.97
2023-04-24T06:36:18.179Z,99825.47
2023-04-24T06:38:45.039Z,99831.03
2023-04-24T06:41:11.864Z,99826.53
2023-04-24T06:43:38.586Z,99830.03
2023-04-24T06:46:05.880Z,99836.53
2023-04-24T06:48:32.706Z,99838.84
2023-04-24T06:50:59.367Z,99838.84
2023-04-24T06:53:26.289Z,99819.63
2023-04-24T06:55:53.228Z,99816.34
2023-04-24T06:58:19.866Z,99815.72
2023-04-24T07:00:46.795Z,99822.38
2023-04-24T07:03:13.590Z,99828.63
2023-04-24T07:05:41.053Z,99830.63
2023-04-24T07:08:07.854Z,99828.19
2023-04-24T07:10:36.725Z,99842.69
2023-04-24T07:13:03.723Z,99836.88
2023-04-24T07:15:30.803Z,99837.44
2023-04-24T07:17:57.483Z,99847.88
2023-04-24T07:20:24.266Z,99842.94
2023-04-24T07:22:50.925Z,99847.94
2023-04-24T07:25:17.611Z,99842.34
2023-04-24T07:27:44.364Z,99846.63
2023-04-24T07:30:11.791Z,99841.91
2023-04-24T07:32:38.501Z,99848.81
2023-04-24T07:35:05.698Z,99848.66
2023-04-24T07:37:32.834Z,99840.81
2023-04-24T07:39:59.646Z,99837.38
2023-04-24T07:42:26.357Z,99839.81
2023-04-24T07:44:53.065Z,99837.63
2023-04-24T07:47:19.876Z,99839.75
2023-04-24T07:49:46.828Z,99830.94
2023-04-24T07:52:13.627Z,99840.88
2023-04-24T07:54:40.428Z,99847.25
2023-04-24T07:57:09.233Z,99854.22
2023-04-24T07:59:36.108Z,99849.63
2023-04-24T08:02:02.961Z,99855.56
2023-04-24T08:04:29.776Z,99866.69
2023-04-24T08:06:56.673Z,99876.03
2023-04-24T08:09:23.634Z,99870.22
2023-04-24T08:11:50.960Z,99866.50
2023-04-24T08:14:17.635Z,99873.53
2023-04-24T08:16:44.596Z,99866.25
2023-04-24T08:19:11.280Z,99880.50
2023-04-24T08:21:37.971Z,99880.69
2023-04-24T08:24:08.046Z,99885.19
2023-04-24T08:26:34.776Z,99890.44
2023-04-24T08:29:01.843Z,99892.34
2023-04-24T08:31:28.735Z,99903.53
2023-04-24T08:33:55.588Z,99902.94
2023-04-24T08:36:45.785Z,99914.13
2023-04-24T08:39:14.099Z,99909.84
2023-04-24T08:41:44.043Z,99891.94
2023-04-24T08:44:11.718Z,99909.91
2023-04-24T08:46:38.906Z,99905.69
2023-04-24T08:49:06.087Z,99915.50
2023-04-24T08:51:33.077Z,99917.56
2023-04-24T08:53:59.893Z,99909.84
2023-04-24T08:56:28.069Z,99906.66
2023-04-24T08:58:55.761Z,99915.63
2023-04-24T09:01:26.279Z,99920.25
2023-04-24T09:03:55.403Z,99927.03
2023-04-24T09:06:23.012Z,99937.91
2023-04-24T09:08:55.073Z,99952.53
2023-04-24T09:11:22.359Z,99943.81
2023-04-24T09:13:49.611Z,99956.09
2023-04-24T09:16:17.070Z,99952.69
2023-04-24T09:18:43.926Z,99962.91
2023-04-24T09:21:11.220Z,99955.13
2023-04-24T09:23:38.045Z,99957.13
2023-04-24T09:26:08.748Z,99945.28
2023-04-24T09:28:40.367Z,99957.84
2023-04-24T09:31:16.807Z,99955.94
2023-04-24T09:33:59.075Z,99967.97
2023-04-24T09:36:35.052Z,99962.41
2023-04-24T09:39:03.288Z,99963.69
2023-04-24T09:41:30.414Z,99957.47
2023-04-24T09:43:57.971Z,99967.75
2023-04-24T09:46:32.862Z,99970.00
2023-04-24T09:49:13.924Z,99980.84
2023-04-24T09:51:41.636Z,99981.13
2023-04-24T09:54:19.594Z,99979.91
2023-04-24T09:56:47.348Z,99987.22
2023-04-24T09:59:15.353Z,99992.22
2023-04-24T10:01:49.814Z,99993.72
2023-04-24T10:04:19.330Z,99991.59
2023-04-24T10:06:47.017Z,99997.63
2023-04-24T10:09:14.855Z,99993.41
2023-04-24T10:11:47.022Z,100005.88
2023-04-24T10:14:15.866Z,100000.56
2023-04-24T10:16:43.790Z,99999.00
2023-04-24T10:19:11.944Z,100004.75
2023-04-24T10:21:43.329Z,100013.41
2023-04-24T10:24:11.086Z,99982.56
2023-04-24T10:26:38.373Z,99991.69
2023-04-24T10:29:10.828Z,99991.28
2023-04-24T10:31:38.619Z,99980.19
2023-04-24T10:34:10.065Z,99981.16
2023-04-24T10:36:42.057Z,99978.78
2023-04-24T10:39:12.644Z,99977.56
2023-04-24T10:41:39.472Z,99990.16
2023-04-24T10:44:11.291Z,99993.50
2023-04-24T10:46:40.109Z,100003.47
2023-04-24T10:49:09.625Z,100010.00
2023-04-24T10:51:51.122Z,100017.47
2023-04-24T10:54:37.365Z,100034.81
2023-04-24T10:57:19.558Z,100028.59
2023-04-24T10:59:47.845Z,100031.81
2023-04-24T11:02:18.831Z,100021.09
2023-04-24T11:04:49.214Z,100020.84
2023-04-24T11:07:15.972Z,100022.72
2023-04-24T11:09:44.488Z,100026.34
2023-04-24T11:12:13.857Z,100031.13
2023-04-24T11:14:59.728Z,100027.06
2023-04-24T11:17:34.899Z,100033.25
2023-04-24T11:20:19.427Z,100025.22
2023-04-24T11:22:56.601Z,100042.16
2023-04-24T11:25:23.803Z,100037.41
2023-04-24T11:27:51.370Z,100037.91
2023-04-24T11:30:20.347Z,100048.97
2023-04-24T11:32:52.596Z,100044.94
2023-04-24T11:35:29.033Z,100050.97
2023-04-24T11:40:26.959Z,100049.28
2023-04-24T11:42:57.548Z,100049.63
2023-04-24T11:45:30.965Z,100051.75
2023-04-24T11:47:58.387Z,100049.25
2023-04-24T11:50:27.743Z,100050.03
2023-04-24T11:52:55.103Z,100065.69
2023-04-24T11:55:21.718Z,100063.63
2023-04-24T11:57:50.597Z,100068.34
2023-04-24T12:00:22.653Z,100056.53
2023-04-24T12:02:51.265Z,100065.81
2023-04-24T12:05:36.487Z,100059.94
2023-04-24T12:08:03.579Z,100053.13
2023-04-24T12:10:32.568Z,100051.75
2023-04-24T12:13:01.025Z,100049.31
2023-04-24T12:15:28.413Z,100059.00
2023-04-24T12:17:57.001Z,100046.38
2023-04-24T12:20:32.399Z,100055.28
2023-04-24T12:23:01.145Z,100050.66
2023-04-24T12:25:33.879Z,100055.50
2023-04-24T12:28:07.163Z,100054.94
2023-04-24T12:30:45.898Z,100058.03
2023-04-24T12:33:13.354Z,100069.03
2023-04-24T12:35:42.360Z,100058.91
2023-04-24T12:38:15.016Z,100064.88
2023-04-24T12:40:43.350Z,100055.38
2023-04-24T12:43:20.688Z,100058.13
2023-04-24T12:45:48.986Z,100059.63
2023-04-24T12:48:15.848Z,100056.81
2023-04-24T12:50:46.118Z,100054.75
2023-04-24T12:53:13.546Z,100054.28
2023-04-24T12:55:41.097Z,100054.84
2023-04-24T12:58:07.906Z,100067.28
2023-04-24T13:00:34.982Z,100062.84
2023-04-24T13:03:03.005Z,100056.94
2023-04-24T13:05:30.204Z,100058.72
2023-04-24T13:07:58.409Z,100056.72
2023-04-24T13:10:25.190Z,100065.47
2023-04-24T13:12:51.999Z,100060.53
2023-04-24T13:15:18.835Z,100062.22
2023-04-24T13:17:45.679Z,100063.69
2023-04-24T13:20:12.938Z,100057.78
2023-04-24T13:22:39.646Z,100066.91
2023-04-24T13:25:10.184Z,100066.91
2023-04-24T13:27:39.451Z,100061.72
2023-04-24T13:30:07.862Z,100064.22
2023-04-24T13:32:36.542Z,100058.81
2023-04-24T13:35:03.652Z,100062.50
2023-04-24T13:37:30.469Z,100055.38
2023-04-24T13:39:57.446Z,100061.22
2023-04-24T13:42:24.453Z,100049.09
2023-04-24T13:44:52.298Z,100061.16
2023-04-24T13:47:19.064Z,100059.97
2023-04-24T13:49:47.999Z,100059.50
2023-04-24T13:52:15.157Z,100054.59
2023-04-24T13:54:41.864Z,100058.44
2023-04-24T13:57:08.968Z,100051.69
2023-04-24T13:59:36.675Z,100049.19
2023-04-24T14:02:03.544Z,100050.78
2023-04-24T14:04:30.602Z,100060.63
2023-04-24T14:06:57.464Z,100053.81
2023-04-24T14:09:27.633Z,100057.47
2023-04-24T14:11:54.597Z,100059.91
2023-04-24T14:14:21.459Z,100064.91
2023-04-24T14:16:49.510Z,100056.72
2023-04-24T14:19:16.125Z,100063.56
2023-04-24T14:21:42.900Z,100065.16
2023-04-24T14:24:10.225Z,100062.94
2023-04-24T14:26:37.076Z,100080.38
2023-04-24T14:29:14.073Z,100072.44
2023-04-24T14:31:41.584Z,100064.63
2023-04-24T14:34:08.240Z,100061.91
2023-04-24T14:36:35.099Z,100071.16
2023-04-24T14:39:06.846Z,100067.81
2023-04-24T14:41:36.649Z,100070.25
2023-04-24T14:44:04.860Z,100077.66
2023-04-24T14:46:31.804Z,100076.00
2023-04-24T14:48:58.933Z,100070.59
2023-04-24T14:51:26.512Z,100077.09
2023-04-24T14:53:53.361Z,100078.38
2023-04-24T14:56:21.278Z,100078.00
2023-04-24T14:58:48.152Z,100078.06
2023-04-24T15:01:15.131Z,100083.75
2023-04-24T15:03:43.143Z,100089.16
2023-04-24T15:06:10.001Z,100087.97
2023-04-24T15:08:36.873Z,100093.75
2023-04-24T15:11:03.636Z,100103.81
2023-04-24T15:13:30.638Z,100101.69
2023-04-24T15:15:57.376Z,100099.22
2023-04-24T15:18:24.543Z,100093.75
2023-04-24T15:20:51.640Z,100095.09
2023-04-24T15:23:18.420Z,100088.22
2023-04-24T15:25:45.364Z,100085.94
2023-04-24T15:28:12.905Z,100090.16
2023-04-24T15:30:39.599Z,100087.53
2023-04-24T15:33:06.625Z,100085.53
2023-04-24T15:35:37.701Z,100084.94
2023-04-24T15:38:05.244Z,100082.47
2023-04-24T15:40:32.113Z,100087.56
2023-04-24T15:42:58.896Z,100092.13
2023-04-24T15:45:26.223Z,100088.38
2023-04-24T15:47:54.928Z,100083.56
2023-04-24T15:50:22.842Z,100086.53
2023-04-24T15:52:49.898Z,100084.50
2023-04-24T15:55:16.704Z,100090.72
2023-04-24T15:57:43.558Z,100084.47
2023-04-24T16:00:12.400Z,100087.25
2023-04-24T16:02:39.837Z,100089.66
2023-04-24T16:05:07.802Z,100088.25
2023-04-24T16:07:36.375Z,100095.66
2023-04-24T16:10:03.561Z,100084.63
2023-04-24T16:12:30.417Z,100086.84
2023-04-24T16:14:57.172Z,100091.34
2023-04-24T16:17:23.823Z,100087.41
2023-04-24T16:19:50.522Z,100075.91
2023-04-24T16:22:17.346Z,100085.31
2023-04-24T16:24:44.648Z,100078.06
2023-04-24T16:27:14.482Z,100074.69
2023-04-24T16:29:41.251Z,100072.66
2023-04-24T16:32:07.951Z,100085.22
2023-04-24T16:34:34.630Z,100072.41
2023-04-24T16:37:01.511Z,100073.00
2023-04-24T16:39:28.364Z,100077.97
2023-04-24T16:41:59.004Z,100083.94
2023-04-24T16:44:26.693Z,100077.22
2023-04-24T16:46:53.409Z,100083.88
2023-04-24T16:49:20.359Z,100085.09
2023-04-24T16:51:47.374Z,100075.38
2023-04-24T16:54:14.133Z,100080.59
2023-04-24T16:56:40.749Z,100080.84
2023-04-24T16:59:08.264Z,100073.41
2023-04-24T17:01:35.304Z,100080.72
2023-04-24T17:04:02.090Z,100081.50
2023-04-24T17:06:28.830Z,100084.56
2023-04-24T17:08:55.803Z,100085.94
2023-04-24T17:11:23.092Z,100075.00
2023-04-24T17:13:49.918Z,100082.41
2023-04-24T17:16:16.762Z,100080.97
2023-04-24T17:18:45.297Z,100076.22
2023-04-24T17:21:12.397Z,100082.75
2023-04-24T17:23:39.214Z,100080.34
2023-04-24T17:26:06.140Z,100065.56
2023-04-24T17:28:33.936Z,100065.84
2023-04-24T17:31:01.140Z,100075.31
2023-04-24T17:33:29.246Z,100083.41
2023-04-24T17:35:57.291Z,100081.31
2023-04-24T17:38:24.615Z,100079.13
2023-04-24T17:40:53.077Z,100085.88
2023-04-24T17:43:21.009Z,100090.47
2023-04-24T17:45:52.232Z,100087.25
2023-04-24T17:48:19.881Z,100082.66
2023-04-24T17:50:46.836Z,100085.88
2023-04-24T17:53:13.760Z,100089.66
2023-04-24T17:55:43.620Z,100085.66
2023-04-24T17:58:11.162Z,100091.59
2023-04-24T18:00:38.451Z,100093.75
2023-04-24T18:03:06.901Z,100094.31
2023-04-24T18:05:36.193Z,100097.59
2023-04-24T18:08:03.645Z,100105.16
2023-04-24T18:10:31.947Z,100104.69
2023-04-24T18:12:59.649Z,100103.66
2023-04-24T18:15:27.256Z,100099.88
2023-04-24T18:17:56.696Z,100113.06
2023-04-24T18:20:23.510Z,100112.03
2023-04-24T18:22:50.310Z,100108.63
2023-04-24T18:25:21.152Z,100114.31
2023-04-24T18:27:47.905Z,100119.19
2023-04-24T18:30:14.998Z,100112.41
2023-04-24T18:32:42.277Z,100115.91
2023-04-24T18:35:09.465Z,100124.50
2023-04-24T18:37:36.198Z,100129.88
2023-04-24T18:40:03.601Z,100129.38
2023-04-24T18:42:30.564Z,100137.00
2023-04-24T18:45:01.898Z,100136.50
2023-04-24T18:47:29.363Z,100132.56
2023-04-24T18:49:57.261Z,100132.59
2023-04-24T18:52:24.997Z,100133.16
2023-04-24T18:54:52.138Z,100135.34
2023-04-24T18:57:18.913Z,100139.09
2023-04-24T18:59:45.701Z,100141.78
2023-04-24T19:02:12.724Z,100138.53
2023-04-24T19:04:39.647Z,100144.97
2023-04-24T19:07:07.011Z,100147.59
2023-04-24T19:09:34.082Z,100143.84
2023-04-24T19:12:01.897Z,100141.66
2023-04-24T19:14:29.325Z,100147.84
2023-04-24T19:16:56.088Z,100150.81
2023-04-24T19:19:23.799Z,100149.78
2023-04-24T19:21:50.739Z,100146.34
2023-04-24T19:24:19.240Z,100153.91
2023-04-24T19:26:46.274Z,100153.91
2023-04-24T19:29:13.116Z,100154.69
2023-04-24T19:31:39.861Z,100156.34
2023-04-24T19:34:06.888Z,100152.31
2023-04-24T19:36:34.018Z,100150.22
2023-04-24T19:39:01.303Z,100152.91
2023-04-24T19:41:28.139Z,100157.47
2023-04-24T19:43:55.253Z,100159.13
2023-04-24T19:46:22.830Z,100170.44
2023-04-24T19:48:49.892Z,100164.59
2023-04-24T19:51:16.794Z,100158.22
2023-04-24T19:53:43.735Z,100171.19
2023-04-24T19:56:10.546Z,100170.41
2023-04-24T19:58:40.554Z,100166.94
2023-04-24T20:01:07.574Z,100169.63
2023-04-24T20:03:34.729Z,100160.25
2023-04-24T20:06:02.415Z,100162.94
2023-04-24T20:08:29.072Z,100162.41
2023-04-24T20:10:57.878Z,100164.56
2023-04-24T20:13:27.628Z,100167.00
2023-04-24T20:15:54.699Z,100170.25
2023-04-24T20:18:21.516Z,100169.97
2023-04-24T20:20:48.271Z,100169.72
2023-04-24T20:23:14.980Z,100167.59
2023-04-24T20:25:41.656Z,100176.72
2023-04-24T20:28:08.371Z,100165.44
2023-04-24T20:30:35.129Z,100167.59
2023-04-24T20:33:02.019Z,100166.81
2023-04-24T20:35:28.770Z,100171.94
2023-04-24T20:37:55.464Z,100165.75
2023-04-24T20:40:22.294Z,100159.06
2023-04-24T20:42:49.792Z,100164.44
2023-04-24T20:45:17.946Z,100160.19
2023-04-24T20:47:44.885Z,100155.88
2023-04-24T20:50:12.034Z,100157.50
2023-04-24T20:52:39.950Z,100157.22
2023-04-24T20:55:09.776Z,100156.16
2023-04-24T20:57:37.133Z,100156.41
2023-04-24T21:00:07.925Z,100156.41
2023-04-24T21:02:34.979Z,100158.31
2023-04-24T21:05:01.810Z,100155.34
2023-04-24T21:07:28.555Z,100158.03
2023-04-24T21:09:55.249Z,100156.97
2023-04-24T21:12:22.029Z,100155.09
2023-04-24T21:14:50.942Z,100165.56
2023-04-24T21:17:18.286Z,100156.41
2023-04-24T21:19:45.005Z,100159.09
2023-04-24T21:22:11.608Z,100156.94
2023-04-24T21:24:38.229Z,100159.09
2023-04-24T21:27:04.982Z,100163.94
2023-04-24T21:29:33.088Z,100156.44
2023-04-24T21:31:59.880Z,100158.31
2023-04-24T21:34:26.665Z,100166.38
2023-04-24T21:36:53.319Z,100158.56
2023-04-24T21:39:20.074Z,100160.41
2023-04-24T21:41:47.637Z,100157.72
2023-04-24T21:44:14.883Z,100156.09
2023-04-24T21:46:42.634Z,100165.53
2023-04-24T21:49:09.611Z,100160.19
2023-04-24T21:51:36.305Z,100156.16
2023-04-24T21:54:02.990Z,100159.13
2023-04-24T21:56:29.780Z,100148.38
2023-04-24T21:58:57.101Z,100145.72
2023-04-24T22:01:23.943Z,100147.34
2023-04-24T22:03:50.996Z,100139.28
2023-04-24T22:06:18.025Z,100136.63
2023-04-24T22:08:47.614Z,100139.03
2023-04-24T22:11:25.653Z,100140.38
2023-04-24T22:13:54.173Z,100138.25
2023-04-24T22:16:23.869Z,100137.16
2023-04-24T22:18:53.703Z,100135.59
2023-04-24T22:21:22.807Z,100135.84
2023-04-24T22:23:50.095Z,100128.31
2023-04-24T22:26:17.171Z,100128.06
2023-04-24T22:28:43.865Z,100128.59
2023-04-24T22:31:10.673Z,100133.69
2023-04-24T22:33:37.661Z,100131.81
2023-04-24T22:36:04.455Z,100130.75
2023-04-24T22:38:31.278Z,100136.13
2023-04-24T22:40:58.353Z,100138.28
2023-04-24T22:43:27.249Z,100130.22
2023-04-24T22:45:54.122Z,100128.63
2023-04-24T22:48:20.948Z,100132.13
2023-04-24T22:50:47.595Z,100133.72
2023-04-24T22:53:15.659Z,100127.00
2023-04-24T22:55:42.542Z,100135.63
2023-04-24T22:58:09.492Z,100126.50
2023-04-24T23:00:36.423Z,100124.88
2023-04-24T23:03:03.523Z,100125.94
2023-04-24T23:05:31.157Z,100128.66
2023-04-24T23:07:57.808Z,100139.41
2023-04-24T23:10:24.554Z,100134.56
2023-04-24T23:12:51.527Z,100136.16
2023-04-24T23:15:18.464Z,100127.03
2023-04-24T23:17:45.497Z,100126.53
2023-04-24T23:20:13.847Z,100125.44
2023-04-24T23:22:44.342Z,100130.28
2023-04-24T23:25:11.213Z,100130.28
2023-04-24T23:27:38.173Z,100126.00
2023-04-24T23:30:06.949Z,100122.78
2023-04-24T23:32:35.078Z,100125.47
2023-04-24T23:35:01.805Z,100128.41
2023-04-24T23:37:28.531Z,100129.75
2023-04-24T23:39:56.408Z,100128.69
2023-04-24T23:42:23.141Z,100126.00
2023-04-24T23:44:49.888Z,100127.88
2023-04-24T23:47:16.542Z,100117.94
2023-04-24T23:49:43.279Z,100120.63
2023-04-24T23:52:10.458Z,100122.25
2023-04-24T23:54:37.245Z,100112.59
2023-04-24T23:57:04.561Z,100114.75
2023-04-24T23:59:31.330Z,100111.50
